sensor_id;sensor_type;location;lat;lon;timestamp;pressure;altitude;pressure_sealevel;temperature;humidity
5284;BME280;15377;48.540;9.268;2023-04-30T00:01:02;97681.31;;;10.94;100.00
5284;BME280;15377;48.540;9.268;2023-04-30T00:03:28;97683.00;;;10.92;100.00
5284;BME280;15377;48.540;9.268;2023-04-30T00:05:53;97679.38;;;10.86;100.00
5284;BME280;15377;48.540;9.268;2023-04-30T00:08:19;97680.94;;;10.78;100.00
5284;BME280;15377;48.540;9.268;2023-04-30T00:10:44;97676.06;;;10.73;100.00
5284;BME280;15377;48.540;9.268;2023-04-30T00:13:10;97673.31;;;10.73;100.00
5284;BME280;15377;48.540;9.268;2023-04-30T00:15:37;97681.28;;;10.71;100.00
5284;BME280;15377;48.540;9.268;2023-04-30T00:18:03;97679.59;;;10.74;100.00
5284;BME280;15377;48.540;9.268;2023-04-30T00:20:31;97687.97;;;10.79;100.00
5284;BME280;15377;48.540;9.268;2023-04-30T00:22:56;97694.06;;;10.83;100.00
5284;BME280;15377;48.540;9.268;2023-04-30T00:25:21;97698.63;;;10.86;100.00
5284;BME280;15377;48.540;9.268;2023-04-30T00:27:48;97699.25;;;10.81;100.00
5284;BME280;15377;48.540;9.268;2023-04-30T00:30:14;97697.41;;;10.87;100.00
5284;BME280;15377;48.540;9.268;2023-04-30T00:32:39;97676.09;;;10.64;100.00
5284;BME280;15377;48.540;9.268;2023-04-30T00:35:05;97694.06;;;10.83;100.00
5284;BME280;15377;48.540;9.268;2023-04-30T00:37:30;97697.13;;;10.85;100.00
5284;BME280;15377;48.540;9.268;2023-04-30T00:39:56;97690.09;;;10.84;100.00
5284;BME280;15377;48.540;9.268;2023-04-30T00:42:22;97692.84;;;10.84;100.00
5284;BME280;15377;48.540;9.268;2023-04-30T00:44:47;97700.16;;;10.87;100.00
5284;BME280;15377;48.540;9.268;2023-04-30T00:47:12;97706.28;;;10.91;100.00
5284;BME280;15377;48.540;9.268;2023-04-30T00:49:38;97703.50;;;10.91;100.00
5284;BME280;15377;48.540;9.268;2023-04-30T00:52:03;97697.06;;;10.94;100.00
5284;BME280;15377;48.540;9.268;2023-04-30T00:54:29;97705.31;;;10.94;100.00
5284;BME280;15377;48.540;9.268;2023-04-30T00:56:54;97699.81;;;10.94;100.00
5284;BME280;15377;48.540;9.268;2023-04-30T00:59:20;97701.34;;;10.95;100.00
5284;BME280;15377;48.540;9.268;2023-04-30T01:01:46;97698.31;;;10.93;100.00
5284;BME280;15377;48.540;9.268;2023-04-30T01:04:11;97691.28;;;10.92;100.00
5284;BME280;15377;48.540;9.268;2023-04-30T01:06:36;97694.91;;;10.98;100.00
5284;BME280;15377;48.540;9.268;2023-04-30T01:09:02;97695.31;;;11.05;100.00
5284;BME280;15377;48.540;9.268;2023-04-30T01:11:34;97697.00;;;11.03;100.00
5284;BME280;15377;48.540;9.268;2023-04-30T01:16:51;97699.81;;;10.94;100.00
5284;BME280;15377;48.540;9.268;2023-04-30T01:19:34;97696.00;;;10.91;100.00
5284;BME280;15377;48.540;9.268;2023-04-30T01:22:03;97693.75;;;10.90;100.00
5284;BME280;15377;48.540;9.268;2023-04-30T01:30:22;97692.34;;;10.85;100.00
5284;BME280;15377;48.540;9.268;2023-04-30T01:32:49;97693.75;;;10.90;100.00
5284;BME280;15377;48.540;9.268;2023-04-30T01:35:14;97694.47;;;10.90;100.00
5284;BME280;15377;48.540;9.268;2023-04-30T01:37:58;97699.81;;;10.94;100.00
5284;BME280;15377;48.540;9.268;2023-04-30T01:40:42;97692.78;;;10.93;100.00
5284;BME280;15377;48.540;9.268;2023-04-30T01:50:50;97687.63;;;10.86;100.00
5284;BME280;15377;48.540;9.268;2023-04-30T01:53:21;97690.09;;;10.84;100.00
5284;BME280;15377;48.540;9.268;2023-04-30T01:56:01;97690.13;;;10.75;100.00
5284;BME280;15377;48.540;9.268;2023-04-30T01:58:28;97685.25;;;10.70;100.00
5284;BME280;15377;48.540;9.268;2023-04-30T02:00:54;97691.69;;;10.67;100.00
5284;BME280;15377;48.540;9.268;2023-04-30T02:03:19;97684.06;;;10.62;100.00
5284;BME280;15377;48.540;9.268;2023-04-30T02:05:46;97686.69;;;10.57;100.00
5284;BME280;15377;48.540;9.268;2023-04-30T02:08:11;97693.72;;;10.58;100.00
5284;BME280;15377;48.540;9.268;2023-04-30T02:10:37;97678.59;;;10.53;100.00
5284;BME280;15377;48.540;9.268;2023-04-30T02:13:02;97688.09;;;10.52;100.00
5284;BME280;15377;48.540;9.268;2023-04-30T02:15:27;97684.56;;;10.52;100.00
5284;BME280;15377;48.540;9.268;2023-04-30T02:17:53;97693.09;;;10.54;100.00
5284;BME280;15377;48.540;9.268;2023-04-30T02:20:18;97683.66;;;10.55;100.00
5284;BME280;15377;48.540;9.268;2023-04-30T02:22:44;97695.69;;;10.57;100.00
5284;BME280;15377;48.540;9.268;2023-04-30T02:25:09;97685.94;;;10.47;100.00
5284;BME280;15377;48.540;9.268;2023-04-30T02:27:36;97691.03;;;10.40;100.00
5284;BME280;15377;48.540;9.268;2023-04-30T02:30:02;97688.44;;;10.36;100.00
5284;BME280;15377;48.540;9.268;2023-04-30T02:32:28;97692.44;;;10.35;100.00
5284;BME280;15377;48.540;9.268;2023-04-30T02:34:54;97676.56;;;10.21;100.00
5284;BME280;15377;48.540;9.268;2023-04-30T02:37:19;97680.53;;;10.20;100.00
5284;BME280;15377;48.540;9.268;2023-04-30T02:39:44;97662.22;;;10.08;100.00
5284;BME280;15377;48.540;9.268;2023-04-30T02:42:10;97672.63;;;10.04;100.00
5284;BME280;15377;48.540;9.268;2023-04-30T02:44:36;97677.81;;;9.93;100.00
5284;BME280;15377;48.540;9.268;2023-04-30T02:47:01;97675.06;;;9.84;100.00
5284;BME280;15377;48.540;9.268;2023-04-30T02:49:28;97683.78;;;9.65;100.00
5284;BME280;15377;48.540;9.268;2023-04-30T02:51:53;97686.69;;;9.52;100.00
5284;BME280;15377;48.540;9.268;2023-04-30T02:54:19;97676.00;;;9.45;100.00
5284;BME280;15377;48.540;9.268;2023-04-30T02:56:45;97668.53;;;9.37;100.00
5284;BME280;15377;48.540;9.268;2023-04-30T02:59:10;97669.91;;;9.32;100.00
5284;BME280;15377;48.540;9.268;2023-04-30T03:01:36;97669.56;;;9.12;100.00
5284;BME280;15377;48.540;9.268;2023-04-30T03:04:01;97673.19;;;9.00;100.00
5284;BME280;15377;48.540;9.268;2023-04-30T03:06:29;97670.44;;;8.91;100.00
5284;BME280;15377;48.540;9.268;2023-04-30T03:08:55;97679.13;;;8.90;100.00
5284;BME280;15377;48.540;9.268;2023-04-30T03:11:20;97668.59;;;8.79;100.00
5284;BME280;15377;48.540;9.268;2023-04-30T03:13:47;97679.41;;;8.74;100.00
5284;BME280;15377;48.540;9.268;2023-04-30T03:16:16;97671.31;;;8.70;100.00
5284;BME280;15377;48.540;9.268;2023-04-30T03:18:41;97685.03;;;8.79;100.00
5284;BME280;15377;48.540;9.268;2023-04-30T03:21:07;97690.53;;;8.79;100.00
5284;BME280;15377;48.540;9.268;2023-04-30T03:23:32;97685.94;;;8.76;100.00
5284;BME280;15377;48.540;9.268;2023-04-30T03:25:57;97690.38;;;8.74;100.00
5284;BME280;15377;48.540;9.268;2023-04-30T03:28:23;97679.84;;;8.72;100.00
5284;BME280;15377;48.540;9.268;2023-04-30T03:30:49;97672.81;;;8.62;100.00
5284;BME280;15377;48.540;9.268;2023-04-30T03:33:14;97682.69;;;8.60;100.00
5284;BME280;15377;48.540;9.268;2023-04-30T03:35:40;97671.06;;;8.47;100.00
5284;BME280;15377;48.540;9.268;2023-04-30T03:38:05;97669.22;;;8.44;100.00
5284;BME280;15377;48.540;9.268;2023-04-30T03:40:30;97669.09;;;8.47;100.00
5284;BME280;15377;48.540;9.268;2023-04-30T03:42:56;97669.69;;;8.51;100.00
5284;BME280;15377;48.540;9.268;2023-04-30T03:45:21;97673.94;;;8.43;100.00
5284;BME280;15377;48.540;9.268;2023-04-30T03:47:47;97670.88;;;8.41;100.00
5284;BME280;15377;48.540;9.268;2023-04-30T03:50:13;97669.91;;;8.26;100.00
5284;BME280;15377;48.540;9.268;2023-04-30T03:52:38;97664.03;;;8.15;100.00
5284;BME280;15377;48.540;9.268;2023-04-30T03:55:04;97670.22;;;8.07;100.00
5284;BME280;15377;48.540;9.268;2023-04-30T03:57:31;97670.56;;;7.87;100.00
5284;BME280;15377;48.540;9.268;2023-04-30T03:59:57;97675.16;;;7.69;100.00
5284;BME280;15377;48.540;9.268;2023-04-30T04:02:22;97670.94;;;7.55;100.00
5284;BME280;15377;48.540;9.268;2023-04-30T04:04:48;97680.94;;;7.49;100.00
5284;BME280;15377;48.540;9.268;2023-04-30T04:07:14;97673.38;;;7.53;100.00
5284;BME280;15377;48.540;9.268;2023-04-30T04:09:39;97673.84;;;7.39;100.00
5284;BME280;15377;48.540;9.268;2023-04-30T04:12:05;97667.34;;;7.24;100.00
5284;BME280;15377;48.540;9.268;2023-04-30T04:14:31;97673.16;;;7.14;100.00
5284;BME280;15377;48.540;9.268;2023-04-30T04:16:56;97679.66;;;7.07;100.00
5284;BME280;15377;48.540;9.268;2023-04-30T04:19:24;97671.84;;;7.18;100.00
5284;BME280;15377;48.540;9.268;2023-04-30T04:21:49;97689.13;;;7.28;100.00
5284;BME280;15377;48.540;9.268;2023-04-30T04:24:15;97688.13;;;7.22;100.00
5284;BME280;15377;48.540;9.268;2023-04-30T04:26:40;97687.78;;;6.99;100.00
5284;BME280;15377;48.540;9.268;2023-04-30T04:29:05;97698.41;;;6.97;100.00
5284;BME280;15377;48.540;9.268;2023-04-30T04:31:33;97680.69;;;6.76;100.00
5284;BME280;15377;48.540;9.268;2023-04-30T04:33:59;97689.63;;;6.89;100.00
5284;BME280;15377;48.540;9.268;2023-04-30T04:36:26;97696.22;;;6.92;100.00
5284;BME280;15377;48.540;9.268;2023-04-30T04:38:52;97703.63;;;7.03;100.00
5284;BME280;15377;48.540;9.268;2023-04-30T04:41:17;97693.88;;;7.03;100.00
5284;BME280;15377;48.540;9.268;2023-04-30T04:43:43;97705.47;;;7.07;100.00
5284;BME280;15377;48.540;9.268;2023-04-30T04:46:08;97704.69;;;7.18;100.00
5284;BME280;15377;48.540;9.268;2023-04-30T04:48:34;97710.22;;;7.27;100.00
5284;BME280;15377;48.540;9.268;2023-04-30T04:51:00;97707.47;;;7.40;100.00
5284;BME280;15377;48.540;9.268;2023-04-30T04:53:25;97697.94;;;7.44;100.00
5284;BME280;15377;48.540;9.268;2023-04-30T04:55:50;97696.78;;;7.54;100.00
5284;BME280;15377;48.540;9.268;2023-04-30T04:58:16;97707.25;;;7.68;100.00
5284;BME280;15377;48.540;9.268;2023-04-30T05:00:42;97698.19;;;7.80;100.00
5284;BME280;15377;48.540;9.268;2023-04-30T05:03:08;97692.47;;;7.87;100.00
5284;BME280;15377;48.540;9.268;2023-04-30T05:05:34;97702.66;;;8.08;100.00
5284;BME280;15377;48.540;9.268;2023-04-30T05:07:59;97697.13;;;8.21;100.00
5284;BME280;15377;48.540;9.268;2023-04-30T05:10:25;97692.81;;;8.41;100.00
5284;BME280;15377;48.540;9.268;2023-04-30T05:12:50;97690.78;;;8.63;100.00
5284;BME280;15377;48.540;9.268;2023-04-30T05:15:15;97698.94;;;8.85;100.00
5284;BME280;15377;48.540;9.268;2023-04-30T05:17:41;97698.50;;;8.95;100.00
5284;BME280;15377;48.540;9.268;2023-04-30T05:20:07;97686.63;;;9.16;100.00
5284;BME280;15377;48.540;9.268;2023-04-30T05:22:33;97697.66;;;9.34;100.00
5284;BME280;15377;48.540;9.268;2023-04-30T05:24:58;97682.13;;;9.49;100.00
5284;BME280;15377;48.540;9.268;2023-04-30T05:27:23;97686.97;;;9.63;100.00
5284;BME280;15377;48.540;9.268;2023-04-30T05:29:49;97695.84;;;9.85;100.00
5284;BME280;15377;48.540;9.268;2023-04-30T05:32:14;97688.03;;;10.02;100.00
5284;BME280;15377;48.540;9.268;2023-04-30T05:34:40;97679.00;;;10.10;100.00
5284;BME280;15377;48.540;9.268;2023-04-30T05:37:05;97693.16;;;10.36;100.00
5284;BME280;15377;48.540;9.268;2023-04-30T05:39:30;97683.53;;;10.40;100.00
5284;BME280;15377;48.540;9.268;2023-04-30T05:41:55;97695.72;;;10.48;100.00
5284;BME280;15377;48.540;9.268;2023-04-30T05:44:21;97689.91;;;10.55;100.00
5284;BME280;15377;48.540;9.268;2023-04-30T05:46:46;97702.00;;;10.81;100.00
5284;BME280;15377;48.540;9.268;2023-04-30T05:49:12;97704.38;;;10.97;100.00
5284;BME280;15377;48.540;9.268;2023-04-30T05:51:37;97706.84;;;10.95;100.00
5284;BME280;15377;48.540;9.268;2023-04-30T05:54:02;97699.53;;;10.92;100.00
5284;BME280;15377;48.540;9.268;2023-04-30T05:56:28;97705.56;;;11.05;100.00
5284;BME280;15377;48.540;9.268;2023-04-30T05:58:53;97708.63;;;11.07;100.00
5284;BME280;15377;48.540;9.268;2023-04-30T06:01:19;97711.91;;;11.20;100.00
5284;BME280;15377;48.540;9.268;2023-04-30T06:03:45;97717.00;;;11.36;100.00
5284;BME280;15377;48.540;9.268;2023-04-30T06:06:11;97716.38;;;11.41;100.00
5284;BME280;15377;48.540;9.268;2023-04-30T06:08:36;97711.69;;;11.56;100.00
5284;BME280;15377;48.540;9.268;2023-04-30T06:11:02;97726.38;;;11.62;100.00
5284;BME280;15377;48.540;9.268;2023-04-30T06:13:30;97719.06;;;11.50;100.00
5284;BME280;15377;48.540;9.268;2023-04-30T06:15:56;97723.78;;;11.58;100.00
5284;BME280;15377;48.540;9.268;2023-04-30T06:18:21;97719.91;;;11.65;100.00
5284;BME280;15377;48.540;9.268;2023-04-30T06:20:47;97731.91;;;11.76;100.00
5284;BME280;15377;48.540;9.268;2023-04-30T06:23:12;97723.75;;;11.82;100.00
5284;BME280;15377;48.540;9.268;2023-04-30T06:25:38;97727.00;;;11.80;100.00
5284;BME280;15377;48.540;9.268;2023-04-30T06:28:03;97731.03;;;11.94;100.00
5284;BME280;15377;48.540;9.268;2023-04-30T06:30:30;97715.47;;;11.82;100.00
5284;BME280;15377;48.540;9.268;2023-04-30T06:32:56;97727.81;;;12.24;100.00
5284;BME280;15377;48.540;9.268;2023-04-30T06:35:21;97719.84;;;12.41;100.00
5284;BME280;15377;48.540;9.268;2023-04-30T06:37:47;97712.81;;;12.40;100.00
5284;BME280;15377;48.540;9.268;2023-04-30T06:40:12;97734.88;;;12.54;100.00
5284;BME280;15377;48.540;9.268;2023-04-30T06:42:37;97734.69;;;12.58;100.00
5284;BME280;15377;48.540;9.268;2023-04-30T06:45:03;97744.88;;;12.52;100.00
5284;BME280;15377;48.540;9.268;2023-04-30T06:47:31;97733.03;;;12.80;100.00
5284;BME280;15377;48.540;9.268;2023-04-30T06:50:01;97736.38;;;12.99;100.00
5284;BME280;15377;48.540;9.268;2023-04-30T06:52:27;97728.69;;;13.23;100.00
5284;BME280;15377;48.540;9.268;2023-04-30T06:54:52;97722.91;;;13.41;100.00
5284;BME280;15377;48.540;9.268;2023-04-30T06:57:17;97732.31;;;13.69;100.00
5284;BME280;15377;48.540;9.268;2023-04-30T06:59:42;97736.19;;;13.77;100.00
5284;BME280;15377;48.540;9.268;2023-04-30T07:02:08;97734.94;;;14.18;100.00
5284;BME280;15377;48.540;9.268;2023-04-30T07:04:34;97732.56;;;14.31;100.00
5284;BME280;15377;48.540;9.268;2023-04-30T07:06:59;97726.16;;;14.45;100.00
5284;BME280;15377;48.540;9.268;2023-04-30T07:09:29;97721.22;;;14.29;100.00
5284;BME280;15377;48.540;9.268;2023-04-30T07:11:54;97727.94;;;14.22;100.00
5284;BME280;15377;48.540;9.268;2023-04-30T07:14:21;97733.13;;;14.15;100.00
5284;BME280;15377;48.540;9.268;2023-04-30T07:16:49;97725.66;;;14.01;100.00
5284;BME280;15377;48.540;9.268;2023-04-30T07:19:14;97720.44;;;13.83;100.00
5284;BME280;15377;48.540;9.268;2023-04-30T07:21:40;97730.25;;;13.84;100.00
5284;BME280;15377;48.540;9.268;2023-04-30T07:24:05;97726.09;;;13.94;100.00
5284;BME280;15377;48.540;9.268;2023-04-30T07:26:30;97721.56;;;14.16;100.00
5284;BME280;15377;48.540;9.268;2023-04-30T07:28:56;97725.72;;;14.52;100.00
5284;BME280;15377;48.540;9.268;2023-04-30T07:31:21;97714.41;;;14.86;100.00
5284;BME280;15377;48.540;9.268;2023-04-30T07:33:47;97707.00;;;15.08;100.00
5284;BME280;15377;48.540;9.268;2023-04-30T07:36:15;97716.69;;;15.29;100.00
5284;BME280;15377;48.540;9.268;2023-04-30T07:38:41;97721.34;;;15.07;100.00
5284;BME280;15377;48.540;9.268;2023-04-30T07:41:06;97713.84;;;15.13;100.00
5284;BME280;15377;48.540;9.268;2023-04-30T07:43:34;97714.34;;;15.11;100.00
5284;BME280;15377;48.540;9.268;2023-04-30T07:45:59;97707.69;;;14.98;100.00
5284;BME280;15377;48.540;9.268;2023-04-30T07:48:25;97720.13;;;14.77;100.00
5284;BME280;15377;48.540;9.268;2023-04-30T07:50:50;97712.22;;;14.65;100.00
5284;BME280;15377;48.540;9.268;2023-04-30T07:53:15;97710.44;;;14.62;100.00
5284;BME280;15377;48.540;9.268;2023-04-30T07:55:41;97719.28;;;14.66;100.00
5284;BME280;15377;48.540;9.268;2023-04-30T07:58:06;97703.56;;;14.52;100.00
5284;BME280;15377;48.540;9.268;2023-04-30T08:00:31;97715.00;;;14.65;100.00
5284;BME280;15377;48.540;9.268;2023-04-30T08:02:58;97720.00;;;14.91;100.00
5284;BME280;15377;48.540;9.268;2023-04-30T08:05:25;97712.91;;;14.90;100.00
5284;BME280;15377;48.540;9.268;2023-04-30T08:07:51;97715.84;;;14.76;100.00
5284;BME280;15377;48.540;9.268;2023-04-30T08:10:16;97707.72;;;14.67;100.00
5284;BME280;15377;48.540;9.268;2023-04-30T08:12:42;97719.91;;;14.80;100.00
5284;BME280;15377;48.540;9.268;2023-04-30T08:15:07;97713.16;;;15.23;100.00
5284;BME280;15377;48.540;9.268;2023-04-30T08:17:33;97714.50;;;15.33;100.00
5284;BME280;15377;48.540;9.268;2023-04-30T08:20:02;97723.06;;;15.35;100.00
5284;BME280;15377;48.540;9.268;2023-04-30T08:22:28;97716.47;;;15.69;100.00
5284;BME280;15377;48.540;9.268;2023-04-30T08:24:54;97730.16;;;15.89;100.00
5284;BME280;15377;48.540;9.268;2023-04-30T08:27:20;97725.53;;;15.75;100.00
5284;BME280;15377;48.540;9.268;2023-04-30T08:29:45;97711.16;;;15.66;100.00
5284;BME280;15377;48.540;9.268;2023-04-30T08:32:11;97722.78;;;15.75;100.00
5284;BME280;15377;48.540;9.268;2023-04-30T08:34:36;97728.59;;;15.77;100.00
5284;BME280;15377;48.540;9.268;2023-04-30T08:37:02;97715.06;;;16.01;100.00
5284;BME280;15377;48.540;9.268;2023-04-30T08:39:27;97719.44;;;16.30;100.00
5284;BME280;15377;48.540;9.268;2023-04-30T08:41:54;97724.22;;;16.29;100.00
5284;BME280;15377;48.540;9.268;2023-04-30T08:44:21;97721.50;;;16.51;100.00
5284;BME280;15377;48.540;9.268;2023-04-30T08:46:54;97724.03;;;16.55;100.00
5284;BME280;15377;48.540;9.268;2023-04-30T08:49:23;97718.47;;;16.71;100.00
5284;BME280;15377;48.540;9.268;2023-04-30T08:51:50;97716.97;;;16.59;100.00
5284;BME280;15377;48.540;9.268;2023-04-30T08:54:16;97723.28;;;16.76;100.00
5284;BME280;15377;48.540;9.268;2023-04-30T08:56:44;97719.72;;;16.70;100.00
5284;BME280;15377;48.540;9.268;2023-04-30T08:59:13;97716.47;;;16.88;100.00
5284;BME280;15377;48.540;9.268;2023-04-30T09:01:40;97710.88;;;17.16;100.00
5284;BME280;15377;48.540;9.268;2023-04-30T09:04:05;97708.88;;;16.94;100.00
5284;BME280;15377;48.540;9.268;2023-04-30T09:06:30;97708.38;;;16.63;100.00
5284;BME280;15377;48.540;9.268;2023-04-30T09:08:56;97711.13;;;16.79;100.00
5284;BME280;15377;48.540;9.268;2023-04-30T09:11:27;97710.34;;;17.34;100.00
5284;BME280;15377;48.540;9.268;2023-04-30T09:13:57;97710.91;;;16.99;100.00
5284;BME280;15377;48.540;9.268;2023-04-30T09:16:24;97710.88;;;16.44;100.00
5284;BME280;15377;48.540;9.268;2023-04-30T09:18:51;97718.72;;;16.51;100.00
5284;BME280;15377;48.540;9.268;2023-04-30T09:21:30;97717.69;;;16.54;100.00
5284;BME280;15377;48.540;9.268;2023-04-30T09:23:57;97713.94;;;16.57;100.00
5284;BME280;15377;48.540;9.268;2023-04-30T09:26:32;97722.53;;;16.81;100.00
5284;BME280;15377;48.540;9.268;2023-04-30T09:28:58;97710.41;;;16.84;100.00
5284;BME280;15377;48.540;9.268;2023-04-30T09:31:24;97701.50;;;17.19;100.00
5284;BME280;15377;48.540;9.268;2023-04-30T09:33:51;97719.19;;;17.27;100.00
5284;BME280;15377;48.540;9.268;2023-04-30T09:36:17;97710.34;;;17.23;99.95
5284;BME280;15377;48.540;9.268;2023-04-30T09:38:42;97706.06;;;17.27;100.00
5284;BME280;15377;48.540;9.268;2023-04-30T09:41:24;97715.19;;;17.11;100.00
5284;BME280;15377;48.540;9.268;2023-04-30T09:43:50;97706.31;;;17.24;100.00
5284;BME280;15377;48.540;9.268;2023-04-30T09:46:21;97709.84;;;17.35;100.00
5284;BME280;15377;48.540;9.268;2023-04-30T09:49:00;97712.94;;;16.82;100.00
5284;BME280;15377;48.540;9.268;2023-04-30T09:51:26;97712.66;;;16.69;96.64
5284;BME280;15377;48.540;9.268;2023-04-30T09:53:52;97716.22;;;16.64;98.71
5284;BME280;15377;48.540;9.268;2023-04-30T09:56:22;97714.19;;;16.48;99.30
5284;BME280;15377;48.540;9.268;2023-04-30T09:58:50;97719.22;;;16.50;99.03
5284;BME280;15377;48.540;9.268;2023-04-30T10:01:18;97708.88;;;16.56;97.57
5284;BME280;15377;48.540;9.268;2023-04-30T10:03:44;97712.66;;;16.53;98.75
5284;BME280;15377;48.540;9.268;2023-04-30T10:06:12;97724.03;;;16.66;97.97
5284;BME280;15377;48.540;9.268;2023-04-30T10:08:50;97712.63;;;17.24;98.09
5284;BME280;15377;48.540;9.268;2023-04-30T10:11:19;97718.44;;;17.43;95.28
5284;BME280;15377;48.540;9.268;2023-04-30T10:13:54;97706.81;;;17.28;91.07
5284;BME280;15377;48.540;9.268;2023-04-30T10:16:33;97711.66;;;17.05;91.51
5284;BME280;15377;48.540;9.268;2023-04-30T10:19:19;97719.22;;;17.21;92.70
5284;BME280;15377;48.540;9.268;2023-04-30T10:21:46;97706.09;;;16.83;86.91
5284;BME280;15377;48.540;9.268;2023-04-30T10:24:13;97707.34;;;16.44;87.62
5284;BME280;15377;48.540;9.268;2023-04-30T10:26:39;97716.22;;;16.75;89.32
5284;BME280;15377;48.540;9.268;2023-04-30T10:29:05;97700.25;;;17.20;92.26
5284;BME280;15377;48.540;9.268;2023-04-30T10:31:31;97698.97;;;17.26;90.48
5284;BME280;15377;48.540;9.268;2023-04-30T10:36:50;97704.50;;;17.48;88.54
5284;BME280;15377;48.540;9.268;2023-04-30T10:39:22;97703.50;;;17.51;84.84
5284;BME280;15377;48.540;9.268;2023-04-30T10:41:51;97710.13;;;17.04;84.35
5284;BME280;15377;48.540;9.268;2023-04-30T10:44:24;97698.47;;;17.22;86.07
5284;BME280;15377;48.540;9.268;2023-04-30T10:46:57;97708.34;;;17.18;89.23
5284;BME280;15377;48.540;9.268;2023-04-30T10:49:26;97700.50;;;17.38;86.00
5284;BME280;15377;48.540;9.268;2023-04-30T10:51:51;97689.09;;;17.25;85.73
5284;BME280;15377;48.540;9.268;2023-04-30T10:54:31;97692.88;;;17.33;88.56
5284;BME280;15377;48.540;9.268;2023-04-30T10:57:17;97699.50;;;17.19;86.16
5284;BME280;15377;48.540;9.268;2023-04-30T11:02:39;97689.91;;;16.87;89.27
5284;BME280;15377;48.540;9.268;2023-04-30T11:07:31;97679.22;;;17.35;84.38
5284;BME280;15377;48.540;9.268;2023-04-30T11:09:57;97670.56;;;17.66;85.92
5284;BME280;15377;48.540;9.268;2023-04-30T11:12:25;97677.56;;;17.78;85.13
5284;BME280;15377;48.540;9.268;2023-04-30T11:15:04;97670.22;;;18.27;86.08
5284;BME280;15377;48.540;9.268;2023-04-30T11:17:31;97678.53;;;18.38;81.80
5284;BME280;15377;48.540;9.268;2023-04-30T11:19:58;97689.50;;;18.19;82.51
5284;BME280;15377;48.540;9.268;2023-04-30T11:22:25;97673.28;;;17.77;80.54
5284;BME280;15377;48.540;9.268;2023-04-30T11:25:11;97683.25;;;17.34;82.72
5284;BME280;15377;48.540;9.268;2023-04-30T11:27:41;97685.34;;;17.06;85.18
5284;BME280;15377;48.540;9.268;2023-04-30T11:30:13;97678.03;;;17.03;84.73
5284;BME280;15377;48.540;9.268;2023-04-30T11:32:42;97675.44;;;17.44;86.09
5284;BME280;15377;48.540;9.268;2023-04-30T11:35:08;97675.63;;;17.62;85.92
5284;BME280;15377;48.540;9.268;2023-04-30T11:37:36;97662.91;;;17.72;82.09
5284;BME280;15377;48.540;9.268;2023-04-30T11:40:04;97656.56;;;17.77;82.21
5284;BME280;15377;48.540;9.268;2023-04-30T11:42:30;97660.44;;;18.09;80.24
5284;BME280;15377;48.540;9.268;2023-04-30T11:45:16;97654.06;;;17.74;82.32
5284;BME280;15377;48.540;9.268;2023-04-30T11:47:49;97655.69;;;17.99;81.66
5284;BME280;15377;48.540;9.268;2023-04-30T11:50:20;97655.53;;;18.26;78.38
5284;BME280;15377;48.540;9.268;2023-04-30T11:52:52;97648.56;;;18.03;78.66
5284;BME280;15377;48.540;9.268;2023-04-30T11:55:22;97651.47;;;17.81;79.57
5284;BME280;15377;48.540;9.268;2023-04-30T11:57:50;97641.84;;;17.88;79.04
5284;BME280;15377;48.540;9.268;2023-04-30T12:00:18;97647.19;;;17.80;78.84
5284;BME280;15377;48.540;9.268;2023-04-30T12:02:46;97627.19;;;17.82;80.35
5284;BME280;15377;48.540;9.268;2023-04-30T12:05:19;97640.69;;;18.48;81.38
5284;BME280;15377;48.540;9.268;2023-04-30T12:08:05;97637.84;;;18.18;78.04
5284;BME280;15377;48.540;9.268;2023-04-30T12:10:32;97630.28;;;18.13;77.36
5284;BME280;15377;48.540;9.268;2023-04-30T12:12:57;97633.63;;;18.47;80.94
5284;BME280;15377;48.540;9.268;2023-04-30T12:15:24;97636.94;;;18.45;74.25
5284;BME280;15377;48.540;9.268;2023-04-30T12:18:12;97645.19;;;18.56;75.81
5284;BME280;15377;48.540;9.268;2023-04-30T12:20:38;97634.50;;;17.90;75.81
5284;BME280;15377;48.540;9.268;2023-04-30T12:23:05;97638.41;;;18.11;78.74
5284;BME280;15377;48.540;9.268;2023-04-30T12:25:39;97621.13;;;18.18;76.56
5284;BME280;15377;48.540;9.268;2023-04-30T12:28:05;97640.47;;;18.75;75.12
5284;BME280;15377;48.540;9.268;2023-04-30T12:30:30;97630.13;;;18.70;74.36
5284;BME280;15377;48.540;9.268;2023-04-30T12:32:58;97630.25;;;18.83;75.21
5284;BME280;15377;48.540;9.268;2023-04-30T12:35:27;97633.22;;;18.67;74.27
5284;BME280;15377;48.540;9.268;2023-04-30T12:38:01;97626.34;;;19.21;72.92
5284;BME280;15377;48.540;9.268;2023-04-30T12:40:28;97633.13;;;19.68;70.61
5284;BME280;15377;48.540;9.268;2023-04-30T12:43:04;97627.59;;;19.44;68.46
5284;BME280;15377;48.540;9.268;2023-04-30T12:45:50;97625.75;;;19.28;66.55
5284;BME280;15377;48.540;9.268;2023-04-30T12:48:17;97621.56;;;19.16;66.50
5284;BME280;15377;48.540;9.268;2023-04-30T12:50:59;97614.81;;;20.09;69.35
5284;BME280;15377;48.540;9.268;2023-04-30T12:53:26;97621.81;;;20.79;62.47
5284;BME280;15377;48.540;9.268;2023-04-30T12:56:10;97621.19;;;20.41;67.70
5284;BME280;15377;48.540;9.268;2023-04-30T12:58:37;97611.84;;;20.02;66.09
5284;BME280;15377;48.540;9.268;2023-04-30T13:01:02;97605.16;;;19.55;66.66
5284;BME280;15377;48.540;9.268;2023-04-30T13:03:28;97600.69;;;19.46;67.21
5284;BME280;15377;48.540;9.268;2023-04-30T13:05:53;97593.00;;;19.52;67.18
5284;BME280;15377;48.540;9.268;2023-04-30T13:08:19;97599.72;;;19.20;68.85
5284;BME280;15377;48.540;9.268;2023-04-30T13:10:46;97602.31;;;19.12;67.61
5284;BME280;15377;48.540;9.268;2023-04-30T13:13:13;97599.13;;;19.03;70.06
5284;BME280;15377;48.540;9.268;2023-04-30T13:15:39;97585.69;;;19.25;69.55
5284;BME280;15377;48.540;9.268;2023-04-30T13:18:05;97582.75;;;19.60;66.36
5284;BME280;15377;48.540;9.268;2023-04-30T13:20:33;97581.72;;;20.13;70.61
5284;BME280;15377;48.540;9.268;2023-04-30T13:22:58;97590.88;;;19.77;68.39
5284;BME280;15377;48.540;9.268;2023-04-30T13:25:24;97587.75;;;19.25;69.79
5284;BME280;15377;48.540;9.268;2023-04-30T13:27:49;97583.81;;;19.33;68.88
5284;BME280;15377;48.540;9.268;2023-04-30T13:30:15;97579.19;;;19.78;66.75